Time;durP1;ratioP1;P1;durP2;ratioP2;P2;SDS_P1;SDS_P2;PMS_P1;PMS_P2;Temp;Humidity;BMP_temperature;BMP_pressure;BME280_temperature;BME280_humidity;BME280_pressure;Samples;Min_cycle;Max_cycle;Signal;HPM_P1;HPM_P2
2022/12/17 13:08:14;;;;;;;54.03;28.10;;;2.70;99.90;;;;;;5012930;28;92546;-75
2022/12/17 13:10:41;;;;;;;55.70;27.98;;;2.70;99.90;;;;;;5015266;28;91740;-77
2022/12/17 13:13:19;;;;;;;58.00;27.40;;;2.70;99.90;;;;;;4994533;28;93392;-76
2022/12/17 13:15:52;;;;;;;52.85;25.90;;;2.80;99.90;;;;;;4994508;28;95712;-77
2022/12/17 13:18:25;;;;;;;54.85;27.38;;;2.70;99.90;;;;;;4995093;28;94895;-75
2022/12/17 13:21:02;;;;;;;57.72;26.80;;;2.80;99.90;;;;;;4999924;28;92516;-75
2022/12/17 13:23:31;;;;;;;59.13;26.40;;;2.80;99.90;;;;;;5017546;28;92491;-76
2022/12/17 13:26:23;;;;;;;61.88;28.73;;;2.80;99.90;;;;;;5017250;28;93106;-75
2022/12/17 13:28:56;;;;;;;58.33;27.38;;;2.80;99.90;;;;;;4995817;28;92439;-75
2022/12/17 13:31:39;;;;;;;57.70;28.63;;;2.80;99.90;;;;;;5001654;28;92539;-75
2022/12/17 13:34:30;;;;;;;51.92;26.08;;;2.80;99.90;;;;;;5016107;28;96331;-73
2022/12/17 13:36:57;;;;;;;55.03;26.20;;;2.80;99.90;;;;;;5016354;28;95853;-73
2022/12/17 13:39:39;;;;;;;58.35;27.35;;;2.70;99.90;;;;;;5016966;28;92364;-73
2022/12/17 13:42:28;;;;;;;53.97;26.67;;;2.70;99.90;;;;;;5015880;28;92742;-73
2022/12/17 13:44:57;;;;;;;52.92;27.17;;;2.70;99.90;;;;;;5014921;28;95663;-75
2022/12/17 13:47:29;;;;;;;59.33;27.75;;;2.70;99.90;;;;;;5016943;28;94600;-75
2022/12/17 13:49:59;;;;;;;126.22;88.45;;;2.80;99.90;;;;;;5017561;28;93103;-74
2022/12/17 13:52:46;;;;;;;56.53;28.38;;;2.80;99.90;;;;;;5001458;28;92563;-74
2022/12/17 13:55:24;;;;;;;54.65;26.67;;;2.80;99.90;;;;;;5016960;28;92574;-73
2022/12/17 13:57:52;;;;;;;54.78;26.02;;;2.80;99.90;;;;;;5017451;28;92358;-71
2022/12/17 14:00:24;;;;;;;54.10;25.33;;;2.80;99.90;;;;;;5016798;28;92452;-74
2022/12/17 14:02:52;;;;;;;47.92;22.33;;;2.80;99.90;;;;;;5017637;28;91615;-74
2022/12/17 14:05:28;;;;;;;55.75;25.95;;;2.80;99.90;;;;;;5015303;28;96149;-73
2022/12/17 14:07:58;;;;;;;54.42;26.05;;;2.70;99.90;;;;;;5015550;28;95657;-72
2022/12/17 14:10:26;;;;;;;58.22;28.77;;;2.70;99.90;;;;;;5014320;28;94843;-73
2022/12/17 14:13:23;;;;;;;55.45;25.45;;;2.60;99.90;;;;;;4982725;28;93063;-71
2022/12/17 14:15:51;;;;;;;57.67;27.15;;;2.60;99.90;;;;;;5015484;28;93310;-76
2022/12/17 14:18:20;;;;;;;52.25;23.50;;;2.60;99.90;;;;;;5014816;28;93132;-72
2022/12/17 14:20:50;;;;;;;58.35;24.67;;;2.50;99.90;;;;;;5015963;28;92535;-73
2022/12/17 14:23:27;;;;;;;56.22;26.60;;;2.50;99.90;;;;;;5015782;28;93057;-72
2022/12/17 14:25:55;;;;;;;50.78;24.80;;;2.50;99.90;;;;;;5015141;28;93053;-73
2022/12/17 14:28:31;;;;;;;53.85;25.42;;;2.40;99.90;;;;;;5013813;28;93069;-75
2022/12/17 14:31:23;;;;;;;58.60;28.65;;;2.40;99.90;;;;;;5015534;28;92491;-71
2022/12/17 14:34:09;;;;;;;48.58;23.00;;;2.40;99.90;;;;;;5016874;28;92448;-72
2022/12/17 14:36:40;;;;;;;36.38;17.55;;;2.30;99.90;;;;;;5015309;28;96707;-72
2022/12/17 14:39:27;;;;;;;55.63;25.77;;;2.20;99.90;;;;;;5016323;28;95536;-75
2022/12/17 14:42:28;;;;;;;35.85;15.75;;;2.20;99.90;;;;;;5015438;28;92436;-75
2022/12/17 14:45:01;;;;;;;59.75;27.20;;;2.10;99.90;;;;;;5015376;28;92476;-72
2022/12/17 14:47:35;;;;;;;53.88;23.55;;;2.00;99.90;;;;;;5016425;28;93216;-75
2022/12/17 14:50:11;;;;;;;56.33;26.65;;;2.00;99.90;;;;;;5015233;28;93268;-77
2022/12/17 14:52:43;;;;;;;56.05;25.55;;;2.10;99.90;;;;;;5016460;28;92426;-77
2022/12/17 14:55:58;;;;;;;61.00;25.83;;;2.00;99.90;;;;;;5015125;28;91665;-76
2022/12/17 14:58:26;;;;;;;;;;;2.10;99.90;;;;;;4929579;28;96526;-73
2022/12/17 15:00:56;;;;;;;59.63;24.50;;;1.90;99.90;;;;;;5017003;28;92496;-75
2022/12/17 15:03:30;;;;;;;53.80;22.90;;;1.80;99.90;;;;;;5014983;28;95023;-73
2022/12/17 15:06:05;;;;;;;65.10;26.83;;;1.80;99.90;;;;;;5015308;28;92452;-74
2022/12/17 15:08:35;;;;;;;64.28;27.33;;;1.80;99.90;;;;;;5016078;28;93281;-76
2022/12/17 15:11:02;;;;;;;63.15;24.27;;;1.80;99.90;;;;;;5015757;28;93212;-73
2022/12/17 15:13:29;;;;;;;60.75;26.55;;;1.80;99.90;;;;;;5014512;28;92516;-74
2022/12/17 15:15:57;;;;;;;63.03;24.85;;;1.80;99.90;;;;;;5015855;28;92708;-74
2022/12/17 15:18:24;;;;;;;55.78;24.65;;;1.80;99.90;;;;;;5015658;28;93174;-75
2022/12/17 15:20:51;;;;;;;59.58;26.00;;;1.70;99.90;;;;;;5014784;28;95409;-75
2022/12/17 15:23:21;;;;;;;60.42;25.85;;;1.70;99.90;;;;;;5015562;28;92573;-76
2022/12/17 15:25:49;;;;;;;61.25;25.52;;;1.70;99.90;;;;;;5015769;28;92929;-74
2022/12/17 15:28:18;;;;;;;57.25;22.23;;;1.70;99.90;;;;;;5013901;28;95655;-74
2022/12/17 15:30:49;;;;;;;56.45;22.88;;;1.60;99.90;;;;;;5015887;28;95515;-75
2022/12/17 15:33:16;;;;;;;67.10;25.23;;;1.50;99.90;;;;;;5014293;28;92385;-74
2022/12/17 15:35:43;;;;;;;53.05;19.65;;;1.50;99.90;;;;;;5015631;28;92504;-74
2022/12/17 15:38:11;;;;;;;53.10;21.60;;;1.40;99.90;;;;;;5014835;28;93307;-73
2022/12/17 15:40:39;;;;;;;61.90;22.13;;;1.30;99.90;;;;;;5012895;28;93055;-75
2022/12/17 15:43:12;;;;;;;63.08;22.58;;;1.20;99.90;;;;;;5013835;28;92451;-75
2022/12/17 15:45:51;;;;;;;63.00;23.17;;;1.20;99.90;;;;;;5015941;28;91642;-75
2022/12/17 15:48:20;;;;;;;65.95;22.77;;;1.20;99.90;;;;;;5015743;28;93564;-75
2022/12/17 15:50:48;;;;;;;57.45;21.25;;;1.20;99.90;;;;;;5013643;28;95692;-76
2022/12/17 15:53:15;;;;;;;52.67;22.02;;;1.20;99.90;;;;;;5012544;28;94842;-76
2022/12/17 15:55:42;;;;;;;65.63;23.83;;;1.10;99.90;;;;;;5008829;28;92723;-76
2022/12/17 15:58:12;;;;;;;63.33;24.08;;;1.10;99.90;;;;;;4995235;28;93601;-76
2022/12/17 16:00:39;;;;;;;72.38;24.50;;;1.00;99.90;;;;;;4994070;28;93191;-74
2022/12/17 16:03:06;;;;;;;64.68;23.80;;;1.00;99.90;;;;;;5002209;28;100081;-76
2022/12/17 16:05:33;;;;;;;59.65;22.20;;;1.00;99.90;;;;;;5030686;28;92486;-76
2022/12/17 16:08:01;;;;;;;76.93;24.92;;;1.00;99.90;;;;;;5014086;28;93203;-75
2022/12/17 16:10:28;;;;;;;67.43;22.55;;;1.00;99.90;;;;;;5030812;28;94074;-75
2022/12/17 16:12:56;;;;;;;75.65;26.75;;;1.00;99.90;;;;;;5015249;28;92968;-75
2022/12/17 16:15:23;;;;;;;78.65;24.58;;;1.00;99.90;;;;;;5030376;28;92626;-76
2022/12/17 16:17:50;;;;;;;77.10;25.33;;;1.10;99.90;;;;;;4995849;28;95619;-75
2022/12/17 16:20:19;;;;;;;56.38;21.02;;;1.00;99.90;;;;;;5030341;27;98075;-76
2022/12/17 16:22:47;;;;;;;69.60;23.58;;;1.10;99.90;;;;;;5013885;28;92479;-76
2022/12/17 16:25:14;;;;;;;74.32;26.77;;;1.10;99.90;;;;;;5014962;28;95159;-76
2022/12/17 16:27:41;;;;;;;66.72;24.63;;;1.00;99.90;;;;;;5012931;28;96024;-76
2022/12/17 16:30:10;;;;;;;73.95;25.77;;;1.10;99.90;;;;;;5030481;28;93103;-76
2022/12/17 16:32:37;;;;;;;70.72;23.40;;;1.00;99.90;;;;;;5014916;28;92316;-76
2022/12/17 16:35:05;;;;;;;67.50;25.40;;;1.10;99.90;;;;;;5014177;28;91765;-76
2022/12/17 16:37:32;;;;;;;71.65;24.55;;;1.10;99.90;;;;;;5029898;28;95856;-76
2022/12/17 16:39:59;;;;;;;75.70;27.15;;;1.10;99.90;;;;;;4997005;28;95002;-75
2022/12/17 16:42:27;;;;;;;79.70;27.75;;;1.10;99.90;;;;;;4995766;28;94824;-75
2022/12/17 16:44:54;;;;;;;77.35;27.45;;;1.10;99.90;;;;;;5014641;28;94929;-76
2022/12/17 16:47:21;;;;;;;81.97;27.70;;;1.10;99.90;;;;;;5030346;28;93146;-75
2022/12/17 16:49:50;;;;;;;78.43;28.00;;;1.10;99.90;;;;;;5013592;28;93040;-73
2022/12/17 16:52:17;;;;;;;70.88;25.25;;;1.10;99.90;;;;;;5017059;28;92370;-75
2022/12/17 16:54:44;;;;;;;81.60;28.08;;;1.10;99.90;;;;;;5016852;28;92993;-75
2022/12/17 16:57:13;;;;;;;82.20;26.85;;;1.10;99.90;;;;;;5000463;28;97192;-75
2022/12/17 16:59:40;;;;;;;79.40;28.45;;;1.00;99.90;;;;;;5000245;28;94085;-76
2022/12/17 17:02:12;;;;;;;41.45;19.08;;;1.00;99.90;;;;;;5017013;28;93039;-76
2022/12/17 17:04:40;;;;;;;74.22;26.48;;;1.00;99.90;;;;;;5016796;28;92476;-74
2022/12/17 17:07:07;;;;;;;78.20;27.27;;;1.00;99.90;;;;;;5015677;28;95859;-74
2022/12/17 17:09:34;;;;;;;76.63;29.00;;;1.00;99.90;;;;;;5033254;28;98256;-74
2022/12/17 17:12:01;;;;;;;74.47;27.70;;;1.00;99.90;;;;;;5000199;28;92567;-74
2022/12/17 17:14:28;;;;;;;76.18;30.60;;;1.00;99.90;;;;;;5016677;28;92555;-75
2022/12/17 17:16:55;;;;;;;62.70;25.70;;;1.00;99.90;;;;;;5017447;28;94577;-75
2022/12/17 17:19:21;;;;;;;69.68;30.63;;;1.00;99.90;;;;;;5016234;28;99866;-75
2022/12/17 17:21:51;;;;;;;62.40;24.98;;;1.00;99.90;;;;;;5032949;27;92568;-75
2022/12/17 17:24:20;;;;;;;63.38;26.65;;;1.00;99.90;;;;;;5016938;28;91695;-75
2022/12/17 17:26:49;;;;;;;68.47;27.92;;;0.90;99.90;;;;;;5000184;28;94609;-75
2022/12/17 17:29:17;;;;;;;72.72;27.95;;;0.90;99.90;;;;;;4999622;28;96072;-75
2022/12/17 17:31:44;;;;;;;72.22;28.20;;;0.90;99.90;;;;;;5015173;28;94887;-75
2022/12/17 17:34:31;;;;;;;63.70;27.20;;;0.90;99.90;;;;;;5016404;28;92422;-75
2022/12/17 17:37:01;;;;;;;61.70;26.75;;;0.80;99.90;;;;;;5016401;28;93524;-75
2022/12/17 17:39:31;;;;;;;68.05;25.63;;;0.80;99.90;;;;;;5017550;28;93194;-75
2022/12/17 17:41:59;;;;;;;63.97;26.55;;;0.80;99.90;;;;;;5017929;28;92529;-75
2022/12/17 17:44:26;;;;;;;52.45;20.73;;;0.80;99.90;;;;;;5016188;28;92493;-75
2022/12/17 17:46:53;;;;;;;64.50;28.80;;;0.80;99.90;;;;;;5016117;28;93393;-75
2022/12/17 17:49:21;;;;;;;66.07;29.38;;;0.70;99.90;;;;;;5033263;28;95800;-75
2022/12/17 17:51:48;;;;;;;65.68;29.55;;;0.70;99.90;;;;;;4999344;28;94662;-75
2022/12/17 17:54:35;;;;;;;60.45;26.40;;;0.70;99.90;;;;;;5033045;28;92500;-75
2022/12/17 17:57:05;;;;;;;62.92;27.08;;;0.70;99.90;;;;;;5014573;28;95761;-75
2022/12/17 17:59:32;;;;;;;69.03;27.15;;;0.70;99.90;;;;;;5032743;28;97916;-75
2022/12/17 18:02:01;;;;;;;72.25;30.23;;;0.70;99.90;;;;;;4981920;28;92536;-75
2022/12/17 18:04:29;;;;;;;70.90;30.65;;;0.70;99.90;;;;;;5017230;28;92457;-75
2022/12/17 18:06:56;;;;;;;69.57;29.70;;;0.70;99.90;;;;;;5032457;28;93220;-75
2022/12/17 18:09:43;;;;;;;74.45;31.13;;;0.70;99.90;;;;;;5017040;28;93023;-75
2022/12/17 18:15:12;;;;;;;67.63;29.42;;;0.70;99.90;;;;;;4998350;28;91947;-75
2022/12/17 18:17:45;;;;;;;77.93;32.72;;;0.70;99.90;;;;;;5015017;28;94370;-75
2022/12/17 18:20:12;;;;;;;78.45;34.10;;;0.70;99.90;;;;;;5015387;28;95980;-75
2022/12/17 18:22:42;;;;;;;61.55;30.52;;;0.70;99.90;;;;;;5031213;28;94969;-74
2022/12/17 18:25:09;;;;;;;75.10;30.70;;;0.70;99.90;;;;;;5015556;28;92398;-75
2022/12/17 18:27:36;;;;;;;82.10;34.78;;;0.70;99.90;;;;;;5032255;28;95465;-75
2022/12/17 18:30:07;;;;;;;72.40;29.77;;;0.60;99.90;;;;;;5014802;28;93321;-75
2022/12/17 18:32:34;;;;;;;69.63;29.38;;;0.60;99.90;;;;;;5015932;28;92479;-75
2022/12/17 18:35:01;;;;;;;82.72;37.03;;;0.60;99.90;;;;;;5015183;28;92519;-75
2022/12/17 18:37:28;;;;;;;81.25;38.22;;;0.60;99.90;;;;;;5031830;28;95599;-75
2022/12/17 18:39:55;;;;;;;83.65;36.22;;;0.60;99.90;;;;;;5016588;28;92910;-75
2022/12/17 18:45:08;;;;;;;78.05;32.72;;;0.60;99.90;;;;;;5031903;28;92600;-75
2022/12/17 18:47:35;;;;;;;82.22;35.40;;;0.60;99.90;;;;;;4997474;28;95621;-75
2022/12/17 18:50:05;;;;;;;93.43;39.13;;;0.70;99.90;;;;;;4998177;28;98417;-75
2022/12/17 18:52:32;;;;;;;91.22;36.95;;;0.70;99.90;;;;;;4998485;28;92533;-75
2022/12/17 18:54:59;;;;;;;84.82;35.33;;;0.70;99.90;;;;;;5015237;28;92426;-75
2022/12/17 18:57:26;;;;;;;94.90;38.05;;;0.70;99.90;;;;;;5015059;28;93516;-75
2022/12/17 18:59:53;;;;;;;87.32;37.67;;;0.70;99.90;;;;;;5015042;28;93647;-75
2022/12/17 19:02:20;;;;;;;87.20;36.10;;;0.70;99.90;;;;;;4998313;28;92616;-75
2022/12/17 19:04:47;;;;;;;81.82;34.65;;;0.70;99.90;;;;;;4998289;28;91829;-75
2022/12/17 19:07:14;;;;;;;83.10;35.08;;;0.70;99.90;;;;;;4998007;28;96327;-75
2022/12/17 19:09:41;;;;;;;90.35;36.47;;;0.60;99.90;;;;;;5016311;28;93525;-74
2022/12/17 19:12:09;;;;;;;92.18;37.13;;;0.60;99.90;;;;;;5013840;28;94847;-75
2022/12/17 19:14:36;;;;;;;88.57;37.67;;;0.70;99.90;;;;;;4997999;28;92542;-75
2022/12/17 19:17:04;;;;;;;92.97;35.10;;;0.60;99.90;;;;;;5015929;28;93250;-75
2022/12/17 19:19:32;;;;;;;90.78;38.28;;;0.70;99.90;;;;;;5015685;28;103583;-75
2022/12/17 19:21:59;;;;;;;90.80;37.65;;;0.70;99.90;;;;;;5015642;28;92431;-75
2022/12/17 19:24:26;;;;;;;88.15;34.83;;;0.70;99.90;;;;;;5015050;28;93034;-75
2022/12/17 19:26:53;;;;;;;99.13;38.45;;;0.70;99.90;;;;;;4997775;28;95566;-75
2022/12/17 19:29:23;;;;;;;95.35;38.40;;;0.60;99.90;;;;;;5015921;28;92135;-75
2022/12/17 19:31:50;;;;;;;90.25;38.03;;;0.60;99.90;;;;;;5015609;28;92467;-75
2022/12/17 19:34:18;;;;;;;92.97;38.97;;;0.50;99.90;;;;;;5007170;28;92520;-75
2022/12/17 19:36:46;;;;;;;89.97;39.47;;;0.60;99.90;;;;;;5033400;28;95852;-75
2022/12/17 19:39:15;;;;;;;91.28;39.80;;;0.60;99.90;;;;;;5017473;28;97866;-74
2022/12/17 19:41:43;;;;;;;98.32;39.75;;;0.50;99.90;;;;;;5035894;27;92640;-74
2022/12/17 19:44:12;;;;;;;102.85;40.90;;;0.60;99.90;;;;;;5035359;27;96668;-75
2022/12/17 19:46:40;;;;;;;92.28;36.58;;;0.60;99.90;;;;;;5034047;28;95333;-75
2022/12/17 19:49:09;;;;;;;89.72;38.55;;;0.60;99.90;;;;;;5017531;28;96278;-76
2022/12/17 19:51:39;;;;;;;127.60;54.95;;;0.60;99.90;;;;;;5017995;28;92377;-75
2022/12/17 19:54:06;;;;;;;120.75;49.95;;;0.60;99.90;;;;;;5035890;27;92379;-75
2022/12/17 19:56:35;;;;;;;99.55;45.30;;;0.50;99.90;;;;;;5017712;28;96433;-75
2022/12/17 19:59:05;;;;;;;83.28;33.83;;;0.50;99.90;;;;;;5033899;27;95620;-75
2022/12/17 20:01:35;;;;;;;70.32;32.72;;;0.50;99.90;;;;;;5033326;28;94995;-75
2022/12/17 20:04:04;;;;;;;81.72;36.15;;;0.40;99.90;;;;;;5035177;27;92462;-75
2022/12/17 20:06:33;;;;;;;89.10;34.70;;;0.40;99.90;;;;;;5017213;28;97053;-75
2022/12/17 20:09:03;;;;;;;89.70;34.40;;;0.40;99.90;;;;;;5033874;28;93055;-75
2022/12/17 20:11:33;;;;;;;70.45;31.30;;;0.50;99.90;;;;;;5034886;27;92486;-74
2022/12/17 20:14:01;;;;;;;76.43;30.50;;;0.40;99.90;;;;;;5017891;28;92440;-74
2022/12/17 20:16:29;;;;;;;79.95;34.50;;;0.40;99.90;;;;;;5034063;28;93135;-74
2022/12/17 20:18:59;;;;;;;76.72;31.73;;;0.40;99.90;;;;;;5017128;28;101653;-74
2022/12/17 20:21:31;;;;;;;80.68;35.65;;;0.40;99.90;;;;;;5001669;28;92584;-74
2022/12/17 20:23:58;;;;;;;77.63;33.15;;;0.40;99.90;;;;;;5017030;28;92554;-74
2022/12/17 20:26:25;;;;;;;81.38;34.42;;;0.40;99.90;;;;;;5031684;28;98486;-75
2022/12/17 20:28:54;;;;;;;77.85;34.08;;;0.40;99.90;;;;;;5033484;28;95829;-75
2022/12/17 20:31:27;;;;;;;78.43;33.67;;;0.40;99.90;;;;;;5034193;28;92585;-74
2022/12/17 20:33:55;;;;;;;88.10;35.33;;;0.30;99.90;;;;;;5035590;27;92370;-74
2022/12/17 20:36:23;;;;;;;84.40;36.03;;;0.30;99.90;;;;;;5033442;28;95728;-74
2022/12/17 20:38:50;;;;;;;79.05;33.75;;;0.30;99.90;;;;;;5035133;28;93188;-74
2022/12/17 20:41:19;;;;;;;83.95;36.03;;;0.30;99.90;;;;;;5033422;28;92451;-74
2022/12/17 20:43:47;;;;;;;87.43;36.50;;;0.30;99.90;;;;;;5035567;27;92247;-74
2022/12/17 20:46:14;;;;;;;80.28;34.67;;;0.30;99.90;;;;;;5033460;28;93266;-74
2022/12/17 20:48:42;;;;;;;87.15;36.92;;;0.30;99.90;;;;;;5033649;28;93223;-74
2022/12/17 20:51:16;;;;;;;84.65;34.80;;;0.30;99.90;;;;;;5032060;28;96857;-75
2022/12/17 20:53:43;;;;;;;95.33;36.33;;;0.20;99.90;;;;;;5033725;28;92436;-74
2022/12/17 20:56:13;;;;;;;88.60;35.80;;;0.20;99.90;;;;;;5033335;28;95856;-74
2022/12/17 20:58:41;;;;;;;84.28;35.55;;;0.30;99.90;;;;;;5034491;27;93350;-75
2022/12/17 21:01:20;;;;;;;89.75;32.17;;;0.30;99.90;;;;;;5034788;27;92393;-74
2022/12/17 21:03:49;;;;;;;87.07;35.28;;;0.30;99.90;;;;;;5033961;28;92931;-74
2022/12/17 21:06:34;;;;;;;208.10;76.85;;;0.30;99.90;;;;;;5033268;28;93463;-74
2022/12/17 21:09:02;;;;;;;160.68;64.32;;;0.20;99.90;;;;;;5033696;28;94638;-74
2022/12/17 21:11:30;;;;;;;89.07;33.42;;;0.20;99.90;;;;;;5033329;28;92438;-75
2022/12/17 21:13:58;;;;;;;82.97;34.05;;;0.10;99.90;;;;;;5034701;27;92462;-75
2022/12/17 21:16:28;;;;;;;83.07;32.17;;;0.10;99.90;;;;;;5033067;27;95865;-75
2022/12/17 21:18:56;;;;;;;95.03;37.08;;;0.10;99.90;;;;;;5032909;28;97960;-75
2022/12/17 21:21:26;;;;;;;85.43;32.53;;;0.10;99.90;;;;;;5016838;28;92486;-75
2022/12/17 21:23:54;;;;;;;79.03;33.70;;;0.10;99.90;;;;;;5033081;28;92493;-75
2022/12/17 21:26:29;;;;;;;81.75;32.97;;;0.10;99.90;;;;;;5032849;28;93162;-75
2022/12/17 21:28:57;;;;;;;70.93;27.92;;;0.10;99.90;;;;;;5032807;28;95765;-75
2022/12/17 21:31:30;;;;;;;81.32;31.85;;;0.10;99.90;;;;;;5016262;28;92541;-75
2022/12/17 21:34:00;;;;;;;83.07;30.10;;;0.00;99.90;;;;;;5016904;28;91705;-75
2022/12/17 21:36:28;;;;;;;74.55;28.02;;;0.00;99.90;;;;;;5033576;28;96058;-75
2022/12/17 21:39:08;;;;;;;79.25;32.92;;;0.00;99.90;;;;;;5036247;28;95989;-75
2022/12/17 21:43:00;;;;;;;87.78;32.85;;;-0.10;99.90;;;;;;5005075;28;95064;-75
2022/12/17 21:44:32;;;;;;;68.32;27.85;;;-0.10;99.90;;;;;;5037734;27;92394;-75
2022/12/17 21:47:01;;;;;;;88.55;33.15;;;-0.20;99.90;;;;;;5037597;27;93664;-75
2022/12/17 21:49:28;;;;;;;98.13;37.08;;;-0.20;99.90;;;;;;5035911;28;95886;-75
2022/12/17 21:51:57;;;;;;;89.45;35.95;;;-0.20;99.90;;;;;;5036181;27;101739;-75
2022/12/17 21:54:24;;;;;;;98.60;37.92;;;-0.20;99.90;;;;;;5036087;28;92487;-75
2022/12/17 21:56:51;;;;;;;88.70;32.33;;;-0.10;99.90;;;;;;5035819;28;95760;-75
2022/12/17 21:59:19;;;;;;;97.03;36.13;;;-0.10;99.90;;;;;;5036395;28;92979;-75
2022/12/17 22:01:46;;;;;;;100.20;36.10;;;-0.10;99.90;;;;;;5036269;28;92464;-76
2022/12/17 22:04:13;;;;;;;86.05;32.03;;;-0.10;99.90;;;;;;5037634;28;92380;-77
2022/12/17 22:06:42;;;;;;;101.78;39.35;;;-0.10;99.90;;;;;;5035004;28;95958;-77
2022/12/17 22:09:18;;;;;;;97.10;34.42;;;-0.10;99.90;;;;;;5035579;27;98437;-75
2022/12/17 22:14:01;;;;;;;96.80;37.67;;;-0.10;99.90;;;;;;5036647;28;92962;-76
2022/12/17 22:14:36;;;;;;;97.13;34.95;;;-0.20;99.90;;;;;;5036442;27;92648;-76
2022/12/17 22:17:03;;;;;;;91.10;33.28;;;-0.20;99.90;;;;;;5037109;27;95245;-75
2022/12/17 22:19:30;;;;;;;92.55;33.10;;;-0.20;99.90;;;;;;5035389;28;95721;-75
2022/12/17 22:21:59;;;;;;;97.95;36.20;;;-0.20;99.90;;;;;;5019048;28;99724;-75
2022/12/17 22:24:26;;;;;;;84.80;32.35;;;-0.20;99.90;;;;;;5019357;28;91828;-75
2022/12/17 22:26:58;;;;;;;100.28;37.67;;;-0.20;99.90;;;;;;5019236;28;95530;-77
2022/12/17 22:35:05;;;;;;;174.85;69.88;;;-0.20;99.90;;;;;;5035711;27;92503;-77
2022/12/17 22:37:42;;;;;;;85.10;34.47;;;-0.30;99.90;;;;;;5035981;28;93308;-77
2022/12/17 22:40:31;;;;;;;85.97;33.92;;;-0.30;99.90;;;;;;5021358;28;94592;-75
2022/12/17 22:43:31;;;;;;;97.13;36.45;;;-0.30;99.90;;;;;;5037180;27;92573;-75
2022/12/17 22:46:18;;;;;;;92.65;35.08;;;-0.30;99.90;;;;;;5036086;28;92467;-75
2022/12/17 22:48:45;;;;;;;93.78;36.08;;;-0.30;99.90;;;;;;5036367;27;93285;-75
2022/12/17 22:51:13;;;;;;;101.88;36.05;;;-0.30;99.90;;;;;;5002706;28;91951;-75
2022/12/17 22:53:48;;;;;;;92.78;37.08;;;-0.30;99.90;;;;;;5035872;28;92408;-75
2022/12/17 22:56:16;;;;;;;97.75;33.95;;;-0.20;99.90;;;;;;5036612;27;92761;-75
2022/12/17 22:58:49;;;;;;;;;;;-0.20;99.90;;;;;;5035909;27;94872;-75
2022/12/17 23:01:16;;;;;;;92.35;32.63;;;-0.30;99.90;;;;;;5036784;28;97606;-75
2022/12/17 23:03:48;;;;;;;102.30;35.95;;;-0.20;99.90;;;;;;5019423;28;92375;-75
2022/12/17 23:06:17;;;;;;;95.38;33.45;;;-0.30;99.90;;;;;;5035396;28;93027;-75
2022/12/17 23:08:45;;;;;;;97.10;34.67;;;-0.20;99.90;;;;;;5034776;28;94751;-75
2022/12/17 23:11:21;;;;;;;101.68;37.65;;;-0.20;99.90;;;;;;5035005;27;93220;-75
2022/12/17 23:13:49;;;;;;;98.38;34.20;;;-0.20;99.90;;;;;;5035083;27;92922;-75
2022/12/17 23:16:16;;;;;;;105.60;37.30;;;-0.20;99.90;;;;;;5035397;28;91739;-75
2022/12/17 23:18:47;;;;;;;88.43;33.05;;;-0.20;99.90;;;;;;5034853;28;94183;-76
2022/12/17 23:21:20;;;;;;;89.43;32.92;;;-0.20;99.90;;;;;;5036171;27;93411;-75
2022/12/17 23:23:47;;;;;;;97.13;36.43;;;-0.20;99.90;;;;;;5034135;28;94779;-75
2022/12/17 23:26:20;;;;;;;97.75;35.25;;;-0.30;99.90;;;;;;5036241;27;93196;-76
2022/12/17 23:28:52;;;;;;;84.32;32.58;;;-0.30;99.90;;;;;;5034230;27;96353;-75
2022/12/17 23:31:20;;;;;;;91.60;33.92;;;-0.30;99.90;;;;;;5034821;28;93171;-74
2022/12/17 23:33:47;;;;;;;95.03;34.30;;;-0.30;99.90;;;;;;5035700;28;92348;-75
2022/12/17 23:36:17;;;;;;;100.85;34.50;;;-0.30;99.90;;;;;;5035947;27;92442;-75
2022/12/17 23:38:45;;;;;;;93.68;33.92;;;-0.30;99.90;;;;;;5035538;28;94315;-76
2022/12/17 23:41:21;;;;;;;116.40;44.85;;;-0.30;99.90;;;;;;5035320;28;93077;-76
2022/12/17 23:43:49;;;;;;;91.25;34.90;;;-0.30;99.90;;;;;;5034511;28;92449;-76
2022/12/17 23:46:17;;;;;;;97.30;35.45;;;-0.40;99.90;;;;;;5034548;27;92428;-76
2022/12/17 23:48:46;;;;;;;96.03;36.67;;;-0.40;99.90;;;;;;5034185;27;95652;-76
2022/12/17 23:51:14;;;;;;;94.47;34.38;;;-0.40;99.90;;;;;;5034493;28;95468;-76
2022/12/17 23:53:42;;;;;;;100.70;36.55;;;-0.40;99.90;;;;;;5035548;27;92461;-76
2022/12/17 23:56:15;;;;;;;85.57;32.28;;;-0.40;99.90;;;;;;5034717;28;92510;-76
2022/12/17 23:58:43;;;;;;;90.28;33.15;;;-0.40;99.90;;;;;;5035386;27;93872;-76
